sensor_id;sensor_type;location;lat;lon;timestamp;temperature;humidity
16404;DHT22;8311;50.158;8.642;2023-05-07T00:01:53;23.30;44.50
16404;DHT22;8311;50.158;8.642;2023-05-07T00:04:45;23.30;44.50
16404;DHT22;8311;50.158;8.642;2023-05-07T00:07:39;23.30;44.60
16404;DHT22;8311;50.158;8.642;2023-05-07T00:10:33;23.30;44.60
16404;DHT22;8311;50.158;8.642;2023-05-07T00:13:27;23.30;44.60
16404;DHT22;8311;50.158;8.642;2023-05-07T00:16:23;23.30;44.60
16404;DHT22;8311;50.158;8.642;2023-05-07T00:19:16;23.30;44.60
16404;DHT22;8311;50.158;8.642;2023-05-07T00:22:09;23.30;44.80
16404;DHT22;8311;50.158;8.642;2023-05-07T00:25:03;23.30;44.70
16404;DHT22;8311;50.158;8.642;2023-05-07T00:27:56;23.30;44.70
16404;DHT22;8311;50.158;8.642;2023-05-07T00:30:56;23.30;44.60
16404;DHT22;8311;50.158;8.642;2023-05-07T00:33:50;23.30;44.70
16404;DHT22;8311;50.158;8.642;2023-05-07T00:36:43;23.30;44.60
16404;DHT22;8311;50.158;8.642;2023-05-07T00:39:36;23.30;44.70
16404;DHT22;8311;50.158;8.642;2023-05-07T00:42:28;23.30;44.60
16404;DHT22;8311;50.158;8.642;2023-05-07T00:45:21;23.30;44.70
16404;DHT22;8311;50.158;8.642;2023-05-07T00:48:17;23.30;44.80
16404;DHT22;8311;50.158;8.642;2023-05-07T00:51:11;23.30;44.70
16404;DHT22;8311;50.158;8.642;2023-05-07T00:54:04;23.30;44.60
16404;DHT22;8311;50.158;8.642;2023-05-07T00:56:58;23.30;44.70
16404;DHT22;8311;50.158;8.642;2023-05-07T00:59:52;23.30;44.70
16404;DHT22;8311;50.158;8.642;2023-05-07T01:02:45;23.30;44.80
16404;DHT22;8311;50.158;8.642;2023-05-07T01:05:41;23.30;44.80
16404;DHT22;8311;50.158;8.642;2023-05-07T01:08:36;23.30;44.80
16404;DHT22;8311;50.158;8.642;2023-05-07T01:11:35;23.30;44.80
16404;DHT22;8311;50.158;8.642;2023-05-07T01:14:27;23.30;44.80
16404;DHT22;8311;50.158;8.642;2023-05-07T01:17:22;23.30;44.80
16404;DHT22;8311;50.158;8.642;2023-05-07T01:20:14;23.30;44.90
16404;DHT22;8311;50.158;8.642;2023-05-07T01:23:11;23.30;44.80
16404;DHT22;8311;50.158;8.642;2023-05-07T01:26:05;23.30;44.80
16404;DHT22;8311;50.158;8.642;2023-05-07T01:28:58;23.30;45.50
16404;DHT22;8311;50.158;8.642;2023-05-07T01:31:51;23.30;44.90
16404;DHT22;8311;50.158;8.642;2023-05-07T01:34:46;23.30;44.90
16404;DHT22;8311;50.158;8.642;2023-05-07T01:37:40;23.30;44.90
16404;DHT22;8311;50.158;8.642;2023-05-07T01:40:36;23.30;44.90
16404;DHT22;8311;50.158;8.642;2023-05-07T01:43:30;23.30;44.90
16404;DHT22;8311;50.158;8.642;2023-05-07T01:46:24;23.30;44.90
16404;DHT22;8311;50.158;8.642;2023-05-07T01:49:19;23.30;45.10
16404;DHT22;8311;50.158;8.642;2023-05-07T01:52:13;23.30;44.90
16404;DHT22;8311;50.158;8.642;2023-05-07T01:55:07;23.30;44.90
16404;DHT22;8311;50.158;8.642;2023-05-07T01:58:01;23.30;44.90
16404;DHT22;8311;50.158;8.642;2023-05-07T02:00:55;23.30;45.00
16404;DHT22;8311;50.158;8.642;2023-05-07T02:03:48;23.30;45.00
16404;DHT22;8311;50.158;8.642;2023-05-07T02:06:41;23.30;45.00
16404;DHT22;8311;50.158;8.642;2023-05-07T02:09:35;23.30;45.00
16404;DHT22;8311;50.158;8.642;2023-05-07T02:12:28;23.30;45.00
16404;DHT22;8311;50.158;8.642;2023-05-07T02:15:22;23.30;45.00
16404;DHT22;8311;50.158;8.642;2023-05-07T02:18:16;23.30;45.00
16404;DHT22;8311;50.158;8.642;2023-05-07T02:21:10;23.30;45.00
16404;DHT22;8311;50.158;8.642;2023-05-07T02:24:03;23.30;45.10
16404;DHT22;8311;50.158;8.642;2023-05-07T02:26:57;23.30;45.70
16404;DHT22;8311;50.158;8.642;2023-05-07T02:29:49;23.30;45.10
16404;DHT22;8311;50.158;8.642;2023-05-07T02:32:44;23.30;45.10
16404;DHT22;8311;50.158;8.642;2023-05-07T02:35:38;23.30;45.10
16404;DHT22;8311;50.158;8.642;2023-05-07T02:38:31;23.30;45.10
16404;DHT22;8311;50.158;8.642;2023-05-07T02:41:24;23.30;45.10
16404;DHT22;8311;50.158;8.642;2023-05-07T02:44:17;23.30;45.10
16404;DHT22;8311;50.158;8.642;2023-05-07T02:47:10;23.30;45.10
16404;DHT22;8311;50.158;8.642;2023-05-07T02:50:07;23.30;45.80
16404;DHT22;8311;50.158;8.642;2023-05-07T02:53:00;23.30;45.10
16404;DHT22;8311;50.158;8.642;2023-05-07T02:55:55;23.30;45.10
16404;DHT22;8311;50.158;8.642;2023-05-07T02:58:48;23.30;45.10
16404;DHT22;8311;50.158;8.642;2023-05-07T03:01:42;23.30;45.10
16404;DHT22;8311;50.158;8.642;2023-05-07T03:04:37;23.30;45.20
16404;DHT22;8311;50.158;8.642;2023-05-07T03:07:32;23.30;45.20
16404;DHT22;8311;50.158;8.642;2023-05-07T03:10:25;23.30;45.20
16404;DHT22;8311;50.158;8.642;2023-05-07T03:13:19;23.30;45.20
16404;DHT22;8311;50.158;8.642;2023-05-07T03:16:11;23.30;45.30
16404;DHT22;8311;50.158;8.642;2023-05-07T03:19:05;23.30;45.30
16404;DHT22;8311;50.158;8.642;2023-05-07T03:21:58;23.30;45.20
16404;DHT22;8311;50.158;8.642;2023-05-07T03:24:53;23.30;45.20
16404;DHT22;8311;50.158;8.642;2023-05-07T03:27:47;23.30;45.30
16404;DHT22;8311;50.158;8.642;2023-05-07T03:30:39;23.30;45.30
16404;DHT22;8311;50.158;8.642;2023-05-07T03:33:33;23.30;45.30
16404;DHT22;8311;50.158;8.642;2023-05-07T03:36:26;23.30;45.30
16404;DHT22;8311;50.158;8.642;2023-05-07T03:39:20;23.30;45.30
16404;DHT22;8311;50.158;8.642;2023-05-07T03:42:14;23.30;45.30
16404;DHT22;8311;50.158;8.642;2023-05-07T03:45:08;23.30;45.40
16404;DHT22;8311;50.158;8.642;2023-05-07T03:48:02;23.30;45.30
16404;DHT22;8311;50.158;8.642;2023-05-07T03:50:56;23.30;45.30
16404;DHT22;8311;50.158;8.642;2023-05-07T03:53:50;23.30;45.40
16404;DHT22;8311;50.158;8.642;2023-05-07T03:56:45;23.30;45.30
16404;DHT22;8311;50.158;8.642;2023-05-07T03:59:39;23.30;45.30
16404;DHT22;8311;50.158;8.642;2023-05-07T04:02:32;23.30;45.40
16404;DHT22;8311;50.158;8.642;2023-05-07T04:05:26;23.30;45.40
16404;DHT22;8311;50.158;8.642;2023-05-07T04:08:20;23.30;45.40
16404;DHT22;8311;50.158;8.642;2023-05-07T04:11:13;23.30;45.40
16404;DHT22;8311;50.158;8.642;2023-05-07T04:14:06;23.30;45.40
16404;DHT22;8311;50.158;8.642;2023-05-07T04:17:00;23.30;45.40
16404;DHT22;8311;50.158;8.642;2023-05-07T04:19:54;23.30;45.40
16404;DHT22;8311;50.158;8.642;2023-05-07T04:22:48;23.30;45.40
16404;DHT22;8311;50.158;8.642;2023-05-07T04:25:41;23.30;45.40
16404;DHT22;8311;50.158;8.642;2023-05-07T04:28:35;23.30;45.40
16404;DHT22;8311;50.158;8.642;2023-05-07T04:31:29;23.20;45.40
16404;DHT22;8311;50.158;8.642;2023-05-07T04:34:23;23.20;45.40
16404;DHT22;8311;50.158;8.642;2023-05-07T04:37:17;23.30;45.50
16404;DHT22;8311;50.158;8.642;2023-05-07T04:40:10;23.30;45.50
16404;DHT22;8311;50.158;8.642;2023-05-07T04:43:04;23.30;45.40
16404;DHT22;8311;50.158;8.642;2023-05-07T04:45:57;23.30;45.50
16404;DHT22;8311;50.158;8.642;2023-05-07T04:48:50;23.30;45.50
16404;DHT22;8311;50.158;8.642;2023-05-07T04:51:45;23.30;45.50
16404;DHT22;8311;50.158;8.642;2023-05-07T04:54:39;23.30;45.50
16404;DHT22;8311;50.158;8.642;2023-05-07T04:57:33;23.30;45.50
16404;DHT22;8311;50.158;8.642;2023-05-07T05:00:26;23.30;47.20
16404;DHT22;8311;50.158;8.642;2023-05-07T05:03:19;23.40;47.10
16404;DHT22;8311;50.158;8.642;2023-05-07T05:06:12;23.40;47.20
16404;DHT22;8311;50.158;8.642;2023-05-07T05:09:07;23.40;47.10
16404;DHT22;8311;50.158;8.642;2023-05-07T05:12:01;23.40;47.10
16404;DHT22;8311;50.158;8.642;2023-05-07T05:14:54;23.40;47.20
16404;DHT22;8311;50.158;8.642;2023-05-07T05:17:46;23.40;47.10
16404;DHT22;8311;50.158;8.642;2023-05-07T05:20:40;23.30;47.10
16404;DHT22;8311;50.158;8.642;2023-05-07T05:23:33;23.40;47.10
16404;DHT22;8311;50.158;8.642;2023-05-07T05:26:27;23.30;47.20
16404;DHT22;8311;50.158;8.642;2023-05-07T05:29:21;23.30;47.20
16404;DHT22;8311;50.158;8.642;2023-05-07T05:32:15;23.40;47.30
16404;DHT22;8311;50.158;8.642;2023-05-07T05:35:08;23.40;47.40
16404;DHT22;8311;50.158;8.642;2023-05-07T05:38:02;23.40;47.40
16404;DHT22;8311;50.158;8.642;2023-05-07T05:40:55;23.30;47.40
16404;DHT22;8311;50.158;8.642;2023-05-07T05:43:49;23.40;47.50
16404;DHT22;8311;50.158;8.642;2023-05-07T05:46:43;23.30;47.40
16404;DHT22;8311;50.158;8.642;2023-05-07T05:49:36;23.40;47.70
16404;DHT22;8311;50.158;8.642;2023-05-07T05:52:30;23.40;47.60
16404;DHT22;8311;50.158;8.642;2023-05-07T05:55:23;23.50;47.40
16404;DHT22;8311;50.158;8.642;2023-05-07T05:58:16;23.50;47.30
16404;DHT22;8311;50.158;8.642;2023-05-07T06:01:10;23.50;47.30
16404;DHT22;8311;50.158;8.642;2023-05-07T06:04:04;23.50;47.20
16404;DHT22;8311;50.158;8.642;2023-05-07T06:06:57;23.50;47.20
16404;DHT22;8311;50.158;8.642;2023-05-07T06:09:50;23.50;47.20
16404;DHT22;8311;50.158;8.642;2023-05-07T06:12:43;23.50;47.10
16404;DHT22;8311;50.158;8.642;2023-05-07T06:15:36;23.50;47.00
16404;DHT22;8311;50.158;8.642;2023-05-07T06:18:30;23.50;47.00
16404;DHT22;8311;50.158;8.642;2023-05-07T06:21:23;23.50;47.00
16404;DHT22;8311;50.158;8.642;2023-05-07T06:24:16;23.50;47.00
16404;DHT22;8311;50.158;8.642;2023-05-07T06:27:09;23.50;47.10
16404;DHT22;8311;50.158;8.642;2023-05-07T06:30:02;23.50;46.90
16404;DHT22;8311;50.158;8.642;2023-05-07T06:32:56;23.50;47.00
16404;DHT22;8311;50.158;8.642;2023-05-07T06:35:50;23.50;47.00
16404;DHT22;8311;50.158;8.642;2023-05-07T06:38:44;23.50;47.00
16404;DHT22;8311;50.158;8.642;2023-05-07T06:41:37;23.50;47.00
16404;DHT22;8311;50.158;8.642;2023-05-07T06:44:31;23.50;47.00
16404;DHT22;8311;50.158;8.642;2023-05-07T06:47:24;23.50;47.00
16404;DHT22;8311;50.158;8.642;2023-05-07T06:50:17;23.50;46.90
16404;DHT22;8311;50.158;8.642;2023-05-07T06:53:12;23.50;46.90
16404;DHT22;8311;50.158;8.642;2023-05-07T06:56:06;23.50;46.80
16404;DHT22;8311;50.158;8.642;2023-05-07T06:59:00;23.50;46.90
16404;DHT22;8311;50.158;8.642;2023-05-07T07:01:53;23.60;47.00
16404;DHT22;8311;50.158;8.642;2023-05-07T07:04:46;23.60;46.90
16404;DHT22;8311;50.158;8.642;2023-05-07T07:07:39;23.60;46.90
16404;DHT22;8311;50.158;8.642;2023-05-07T07:10:33;23.50;46.80
16404;DHT22;8311;50.158;8.642;2023-05-07T07:13:27;23.60;46.80
16404;DHT22;8311;50.158;8.642;2023-05-07T07:16:21;23.60;46.90
16404;DHT22;8311;50.158;8.642;2023-05-07T07:19:15;23.60;46.80
16404;DHT22;8311;50.158;8.642;2023-05-07T07:22:08;23.60;46.80
16404;DHT22;8311;50.158;8.642;2023-05-07T07:25:02;23.60;46.80
16404;DHT22;8311;50.158;8.642;2023-05-07T07:27:58;23.60;46.80
16404;DHT22;8311;50.158;8.642;2023-05-07T07:30:50;23.60;46.80
16404;DHT22;8311;50.158;8.642;2023-05-07T07:33:44;23.60;46.80
16404;DHT22;8311;50.158;8.642;2023-05-07T07:36:37;23.60;46.90
16404;DHT22;8311;50.158;8.642;2023-05-07T07:39:38;23.60;46.90
16404;DHT22;8311;50.158;8.642;2023-05-07T07:42:31;23.60;47.50
16404;DHT22;8311;50.158;8.642;2023-05-07T07:45:25;23.60;47.30
16404;DHT22;8311;50.158;8.642;2023-05-07T07:48:19;23.60;47.30
16404;DHT22;8311;50.158;8.642;2023-05-07T07:51:12;23.60;47.30
16404;DHT22;8311;50.158;8.642;2023-05-07T07:54:06;23.60;47.40
16404;DHT22;8311;50.158;8.642;2023-05-07T07:56:59;23.60;47.30
16404;DHT22;8311;50.158;8.642;2023-05-07T07:59:53;23.60;47.30
16404;DHT22;8311;50.158;8.642;2023-05-07T08:02:48;23.60;47.30
16404;DHT22;8311;50.158;8.642;2023-05-07T08:05:41;23.60;47.40
16404;DHT22;8311;50.158;8.642;2023-05-07T08:08:34;23.60;47.40
16404;DHT22;8311;50.158;8.642;2023-05-07T08:11:28;23.60;47.30
16404;DHT22;8311;50.158;8.642;2023-05-07T08:14:21;23.60;47.20
16404;DHT22;8311;50.158;8.642;2023-05-07T08:17:14;23.60;47.10
16404;DHT22;8311;50.158;8.642;2023-05-07T08:20:10;23.60;47.00
16404;DHT22;8311;50.158;8.642;2023-05-07T08:23:06;23.60;46.90
16404;DHT22;8311;50.158;8.642;2023-05-07T08:26:00;23.50;46.80
16404;DHT22;8311;50.158;8.642;2023-05-07T08:28:53;23.50;46.70
16404;DHT22;8311;50.158;8.642;2023-05-07T08:31:46;23.50;46.70
16404;DHT22;8311;50.158;8.642;2023-05-07T08:34:39;23.50;46.60
16404;DHT22;8311;50.158;8.642;2023-05-07T08:37:33;23.50;46.50
16404;DHT22;8311;50.158;8.642;2023-05-07T08:40:27;23.50;46.50
16404;DHT22;8311;50.158;8.642;2023-05-07T08:43:21;23.50;46.50
16404;DHT22;8311;50.158;8.642;2023-05-07T08:46:17;23.50;46.50
16404;DHT22;8311;50.158;8.642;2023-05-07T08:49:12;23.50;46.40
16404;DHT22;8311;50.158;8.642;2023-05-07T08:52:06;23.50;46.30
16404;DHT22;8311;50.158;8.642;2023-05-07T08:55:03;23.50;46.30
16404;DHT22;8311;50.158;8.642;2023-05-07T08:57:57;23.50;46.30
16404;DHT22;8311;50.158;8.642;2023-05-07T09:00:51;23.50;46.20
16404;DHT22;8311;50.158;8.642;2023-05-07T09:03:46;23.50;46.20
16404;DHT22;8311;50.158;8.642;2023-05-07T09:06:40;23.50;46.20
16404;DHT22;8311;50.158;8.642;2023-05-07T09:09:34;23.50;46.20
16404;DHT22;8311;50.158;8.642;2023-05-07T09:12:28;23.50;46.10
16404;DHT22;8311;50.158;8.642;2023-05-07T09:15:22;23.50;46.10
16404;DHT22;8311;50.158;8.642;2023-05-07T09:18:15;23.50;46.10
16404;DHT22;8311;50.158;8.642;2023-05-07T09:21:10;23.50;46.10
16404;DHT22;8311;50.158;8.642;2023-05-07T09:24:04;23.50;46.00
16404;DHT22;8311;50.158;8.642;2023-05-07T09:26:58;23.50;46.00
16404;DHT22;8311;50.158;8.642;2023-05-07T09:29:53;23.50;46.00
16404;DHT22;8311;50.158;8.642;2023-05-07T09:32:47;23.50;46.00
16404;DHT22;8311;50.158;8.642;2023-05-07T09:35:40;23.50;46.00
16404;DHT22;8311;50.158;8.642;2023-05-07T09:38:34;23.50;46.00
16404;DHT22;8311;50.158;8.642;2023-05-07T09:41:30;23.50;46.10
16404;DHT22;8311;50.158;8.642;2023-05-07T09:44:24;23.50;46.00
16404;DHT22;8311;50.158;8.642;2023-05-07T09:47:20;23.50;46.00
16404;DHT22;8311;50.158;8.642;2023-05-07T09:50:17;23.50;45.90
16404;DHT22;8311;50.158;8.642;2023-05-07T09:53:10;23.50;45.90
16404;DHT22;8311;50.158;8.642;2023-05-07T09:56:04;23.50;45.90
16404;DHT22;8311;50.158;8.642;2023-05-07T09:59:00;23.50;45.90
16404;DHT22;8311;50.158;8.642;2023-05-07T10:01:57;23.60;46.10
16404;DHT22;8311;50.158;8.642;2023-05-07T10:04:52;23.60;46.00
16404;DHT22;8311;50.158;8.642;2023-05-07T10:07:47;23.60;45.90
16404;DHT22;8311;50.158;8.642;2023-05-07T10:10:42;23.60;45.80
16404;DHT22;8311;50.158;8.642;2023-05-07T10:13:35;23.60;45.70
16404;DHT22;8311;50.158;8.642;2023-05-07T10:16:31;23.70;45.80
16404;DHT22;8311;50.158;8.642;2023-05-07T10:19:29;23.70;45.80
16404;DHT22;8311;50.158;8.642;2023-05-07T10:22:25;23.70;45.70
16404;DHT22;8311;50.158;8.642;2023-05-07T10:25:23;23.70;45.70
16404;DHT22;8311;50.158;8.642;2023-05-07T10:28:20;23.80;45.70
16404;DHT22;8311;50.158;8.642;2023-05-07T10:34:44;23.80;45.80
16404;DHT22;8311;50.158;8.642;2023-05-07T10:37:40;23.80;45.80
16404;DHT22;8311;50.158;8.642;2023-05-07T10:40:35;23.80;45.60
16404;DHT22;8311;50.158;8.642;2023-05-07T10:43:39;23.80;45.60
16404;DHT22;8311;50.158;8.642;2023-05-07T10:46:32;23.80;45.60
16404;DHT22;8311;50.158;8.642;2023-05-07T10:49:27;23.80;45.50
16404;DHT22;8311;50.158;8.642;2023-05-07T10:52:22;23.80;45.80
16404;DHT22;8311;50.158;8.642;2023-05-07T10:55:23;23.80;45.60
16404;DHT22;8311;50.158;8.642;2023-05-07T10:58:25;23.80;45.60
16404;DHT22;8311;50.158;8.642;2023-05-07T11:01:52;23.80;45.60
16404;DHT22;8311;50.158;8.642;2023-05-07T11:05:19;23.80;45.70
16404;DHT22;8311;50.158;8.642;2023-05-07T11:08:13;23.80;45.70
16404;DHT22;8311;50.158;8.642;2023-05-07T11:11:08;23.90;45.70
16404;DHT22;8311;50.158;8.642;2023-05-07T11:14:01;23.80;45.60
16404;DHT22;8311;50.158;8.642;2023-05-07T11:17:02;23.90;45.80
16404;DHT22;8311;50.158;8.642;2023-05-07T11:19:55;23.90;45.70
16404;DHT22;8311;50.158;8.642;2023-05-07T11:22:49;23.90;45.80
16404;DHT22;8311;50.158;8.642;2023-05-07T11:25:47;23.90;45.70
16404;DHT22;8311;50.158;8.642;2023-05-07T11:28:43;23.90;45.70
16404;DHT22;8311;50.158;8.642;2023-05-07T11:31:37;23.90;45.80
16404;DHT22;8311;50.158;8.642;2023-05-07T11:34:30;23.90;45.70
16404;DHT22;8311;50.158;8.642;2023-05-07T11:37:25;24.00;46.00
16404;DHT22;8311;50.158;8.642;2023-05-07T11:40:19;24.00;45.90
16404;DHT22;8311;50.158;8.642;2023-05-07T11:43:13;24.00;45.90
16404;DHT22;8311;50.158;8.642;2023-05-07T11:46:09;24.00;45.90
16404;DHT22;8311;50.158;8.642;2023-05-07T11:49:03;24.00;45.80
16404;DHT22;8311;50.158;8.642;2023-05-07T11:51:57;24.00;45.70
16404;DHT22;8311;50.158;8.642;2023-05-07T11:54:50;24.00;45.80
16404;DHT22;8311;50.158;8.642;2023-05-07T11:57:43;24.10;45.70
16404;DHT22;8311;50.158;8.642;2023-05-07T12:00:37;24.10;45.50
16404;DHT22;8311;50.158;8.642;2023-05-07T12:03:31;24.00;45.70
16404;DHT22;8311;50.158;8.642;2023-05-07T12:06:27;24.00;45.40
16404;DHT22;8311;50.158;8.642;2023-05-07T12:09:20;24.10;45.80
16404;DHT22;8311;50.158;8.642;2023-05-07T12:12:14;24.10;45.60
16404;DHT22;8311;50.158;8.642;2023-05-07T12:15:09;24.10;45.50
16404;DHT22;8311;50.158;8.642;2023-05-07T12:18:03;24.00;45.30
16404;DHT22;8311;50.158;8.642;2023-05-07T12:20:59;24.00;45.20
16404;DHT22;8311;50.158;8.642;2023-05-07T12:23:52;24.00;45.00
16404;DHT22;8311;50.158;8.642;2023-05-07T12:26:45;24.10;45.10
16404;DHT22;8311;50.158;8.642;2023-05-07T12:29:39;24.00;45.10
16404;DHT22;8311;50.158;8.642;2023-05-07T12:32:36;24.00;45.30
16404;DHT22;8311;50.158;8.642;2023-05-07T12:35:29;24.00;45.30
16404;DHT22;8311;50.158;8.642;2023-05-07T12:38:24;24.00;45.40
16404;DHT22;8311;50.158;8.642;2023-05-07T12:41:17;24.00;45.40
16404;DHT22;8311;50.158;8.642;2023-05-07T12:44:11;24.00;45.60
16404;DHT22;8311;50.158;8.642;2023-05-07T12:47:04;24.00;45.50
16404;DHT22;8311;50.158;8.642;2023-05-07T12:49:57;24.00;45.40
16404;DHT22;8311;50.158;8.642;2023-05-07T12:52:52;24.00;45.40
16404;DHT22;8311;50.158;8.642;2023-05-07T12:55:49;24.00;45.30
16404;DHT22;8311;50.158;8.642;2023-05-07T12:58:42;24.00;45.40
16404;DHT22;8311;50.158;8.642;2023-05-07T13:01:35;24.00;45.50
16404;DHT22;8311;50.158;8.642;2023-05-07T13:04:28;24.00;45.60
16404;DHT22;8311;50.158;8.642;2023-05-07T13:07:24;24.00;45.50
16404;DHT22;8311;50.158;8.642;2023-05-07T13:10:21;24.00;46.10
16404;DHT22;8311;50.158;8.642;2023-05-07T13:13:16;24.00;45.40
16404;DHT22;8311;50.158;8.642;2023-05-07T13:16:10;24.00;45.50
16404;DHT22;8311;50.158;8.642;2023-05-07T13:19:04;24.00;45.20
16404;DHT22;8311;50.158;8.642;2023-05-07T13:21:58;24.00;45.30
16404;DHT22;8311;50.158;8.642;2023-05-07T13:24:51;24.00;45.90
16404;DHT22;8311;50.158;8.642;2023-05-07T13:27:45;24.00;45.20
16404;DHT22;8311;50.158;8.642;2023-05-07T13:30:52;24.00;45.20
16404;DHT22;8311;50.158;8.642;2023-05-07T13:33:46;24.00;45.20
16404;DHT22;8311;50.158;8.642;2023-05-07T13:36:39;24.00;45.20
16404;DHT22;8311;50.158;8.642;2023-05-07T13:39:33;23.90;45.30
16404;DHT22;8311;50.158;8.642;2023-05-07T13:42:26;24.00;45.10
16404;DHT22;8311;50.158;8.642;2023-05-07T13:45:19;24.00;45.20
16404;DHT22;8311;50.158;8.642;2023-05-07T13:48:13;24.00;45.20
16404;DHT22;8311;50.158;8.642;2023-05-07T13:51:07;24.00;45.20
16404;DHT22;8311;50.158;8.642;2023-05-07T13:54:00;23.90;45.20
16404;DHT22;8311;50.158;8.642;2023-05-07T13:56:54;23.90;45.30
16404;DHT22;8311;50.158;8.642;2023-05-07T13:59:47;23.90;45.30
16404;DHT22;8311;50.158;8.642;2023-05-07T14:02:40;23.90;45.40
16404;DHT22;8311;50.158;8.642;2023-05-07T14:05:36;23.90;45.10
16404;DHT22;8311;50.158;8.642;2023-05-07T14:08:29;23.90;45.00
16404;DHT22;8311;50.158;8.642;2023-05-07T14:11:23;23.90;45.10
16404;DHT22;8311;50.158;8.642;2023-05-07T14:14:17;23.90;45.20
16404;DHT22;8311;50.158;8.642;2023-05-07T14:17:11;23.90;45.20
16404;DHT22;8311;50.158;8.642;2023-05-07T14:20:05;23.90;45.30
16404;DHT22;8311;50.158;8.642;2023-05-07T14:23:00;23.90;44.80
16404;DHT22;8311;50.158;8.642;2023-05-07T14:25:53;23.90;44.80
16404;DHT22;8311;50.158;8.642;2023-05-07T14:28:48;23.90;44.80
16404;DHT22;8311;50.158;8.642;2023-05-07T14:31:41;23.90;44.70
16404;DHT22;8311;50.158;8.642;2023-05-07T14:34:34;23.90;44.60
16404;DHT22;8311;50.158;8.642;2023-05-07T14:37:28;23.90;44.60
16404;DHT22;8311;50.158;8.642;2023-05-07T14:40:23;23.90;44.70
16404;DHT22;8311;50.158;8.642;2023-05-07T14:43:16;23.90;44.90
16404;DHT22;8311;50.158;8.642;2023-05-07T14:46:09;23.90;44.90
16404;DHT22;8311;50.158;8.642;2023-05-07T14:49:03;23.90;44.90
16404;DHT22;8311;50.158;8.642;2023-05-07T14:51:57;23.90;45.00
16404;DHT22;8311;50.158;8.642;2023-05-07T14:54:51;23.90;44.70
16404;DHT22;8311;50.158;8.642;2023-05-07T14:57:46;23.80;44.70
16404;DHT22;8311;50.158;8.642;2023-05-07T15:00:39;23.90;44.80
16404;DHT22;8311;50.158;8.642;2023-05-07T15:03:32;23.80;44.90
16404;DHT22;8311;50.158;8.642;2023-05-07T15:06:25;23.90;44.80
16404;DHT22;8311;50.158;8.642;2023-05-07T15:09:18;23.90;44.70
16404;DHT22;8311;50.158;8.642;2023-05-07T15:12:13;23.90;44.80
16404;DHT22;8311;50.158;8.642;2023-05-07T15:15:09;23.80;44.70
16404;DHT22;8311;50.158;8.642;2023-05-07T15:18:03;23.80;44.80
16404;DHT22;8311;50.158;8.642;2023-05-07T15:20:57;23.80;44.70
16404;DHT22;8311;50.158;8.642;2023-05-07T15:23:50;23.80;44.40
16404;DHT22;8311;50.158;8.642;2023-05-07T15:26:43;23.80;44.00
16404;DHT22;8311;50.158;8.642;2023-05-07T15:29:37;23.80;44.70
16404;DHT22;8311;50.158;8.642;2023-05-07T15:32:33;23.80;44.60
16404;DHT22;8311;50.158;8.642;2023-05-07T15:35:26;23.80;44.70
16404;DHT22;8311;50.158;8.642;2023-05-07T15:38:19;23.80;44.40
16404;DHT22;8311;50.158;8.642;2023-05-07T15:41:12;23.80;44.70
16404;DHT22;8311;50.158;8.642;2023-05-07T15:44:06;23.80;44.80
16404;DHT22;8311;50.158;8.642;2023-05-07T15:46:59;23.80;44.80
16404;DHT22;8311;50.158;8.642;2023-05-07T15:49:55;23.80;44.70
16404;DHT22;8311;50.158;8.642;2023-05-07T15:52:48;23.80;44.70
16404;DHT22;8311;50.158;8.642;2023-05-07T15:55:42;23.80;44.40
16404;DHT22;8311;50.158;8.642;2023-05-07T15:58:37;23.80;44.90
16404;DHT22;8311;50.158;8.642;2023-05-07T16:01:31;23.80;45.00
16404;DHT22;8311;50.158;8.642;2023-05-07T16:04:24;23.80;45.00
16404;DHT22;8311;50.158;8.642;2023-05-07T16:07:20;23.80;45.10
16404;DHT22;8311;50.158;8.642;2023-05-07T16:10:13;23.80;45.00
16404;DHT22;8311;50.158;8.642;2023-05-07T16:13:06;23.80;44.80
16404;DHT22;8311;50.158;8.642;2023-05-07T16:15:59;23.70;44.90
16404;DHT22;8311;50.158;8.642;2023-05-07T16:18:53;23.80;45.00
16404;DHT22;8311;50.158;8.642;2023-05-07T16:21:46;23.70;45.00
16404;DHT22;8311;50.158;8.642;2023-05-07T16:24:41;23.80;45.00
16404;DHT22;8311;50.158;8.642;2023-05-07T16:27:34;23.70;44.90
16404;DHT22;8311;50.158;8.642;2023-05-07T16:30:27;23.80;44.90
16404;DHT22;8311;50.158;8.642;2023-05-07T16:33:20;23.80;44.90
16404;DHT22;8311;50.158;8.642;2023-05-07T16:36:14;23.70;44.90
16404;DHT22;8311;50.158;8.642;2023-05-07T16:39:06;23.80;45.00
16404;DHT22;8311;50.158;8.642;2023-05-07T16:42:02;23.70;44.90
16404;DHT22;8311;50.158;8.642;2023-05-07T16:44:55;23.70;44.90
16404;DHT22;8311;50.158;8.642;2023-05-07T16:47:48;23.70;45.00
16404;DHT22;8311;50.158;8.642;2023-05-07T16:50:41;23.70;45.00
16404;DHT22;8311;50.158;8.642;2023-05-07T16:53:35;23.70;45.00
16404;DHT22;8311;50.158;8.642;2023-05-07T16:56:29;23.70;45.00
16404;DHT22;8311;50.158;8.642;2023-05-07T16:59:26;23.70;45.00
16404;DHT22;8311;50.158;8.642;2023-05-07T17:02:22;23.70;45.10
16404;DHT22;8311;50.158;8.642;2023-05-07T17:05:16;23.70;45.10
16404;DHT22;8311;50.158;8.642;2023-05-07T17:08:10;23.70;45.20
16404;DHT22;8311;50.158;8.642;2023-05-07T17:11:06;23.70;45.20
16404;DHT22;8311;50.158;8.642;2023-05-07T17:13:59;23.70;45.20
16404;DHT22;8311;50.158;8.642;2023-05-07T17:16:58;23.70;45.20
16404;DHT22;8311;50.158;8.642;2023-05-07T17:19:51;23.70;45.20
16404;DHT22;8311;50.158;8.642;2023-05-07T17:22:44;23.70;45.40
16404;DHT22;8311;50.158;8.642;2023-05-07T17:25:37;23.70;45.40
16404;DHT22;8311;50.158;8.642;2023-05-07T17:28:30;23.70;45.60
16404;DHT22;8311;50.158;8.642;2023-05-07T17:31:23;23.70;45.80
16404;DHT22;8311;50.158;8.642;2023-05-07T17:34:19;23.70;46.00
16404;DHT22;8311;50.158;8.642;2023-05-07T17:37:13;23.70;46.10
16404;DHT22;8311;50.158;8.642;2023-05-07T17:40:07;23.70;46.20
16404;DHT22;8311;50.158;8.642;2023-05-07T17:43:01;23.70;46.40
16404;DHT22;8311;50.158;8.642;2023-05-07T17:45:54;23.70;46.40
16404;DHT22;8311;50.158;8.642;2023-05-07T17:48:47;23.70;46.50
16404;DHT22;8311;50.158;8.642;2023-05-07T17:51:43;23.70;46.50
16404;DHT22;8311;50.158;8.642;2023-05-07T17:54:45;23.70;46.60
16404;DHT22;8311;50.158;8.642;2023-05-07T17:57:38;23.70;46.60
16404;DHT22;8311;50.158;8.642;2023-05-07T18:00:31;23.70;46.50
16404;DHT22;8311;50.158;8.642;2023-05-07T18:03:24;23.70;46.60
16404;DHT22;8311;50.158;8.642;2023-05-07T18:06:19;23.70;46.60
16404;DHT22;8311;50.158;8.642;2023-05-07T18:09:15;23.70;46.60
16404;DHT22;8311;50.158;8.642;2023-05-07T18:12:08;23.70;46.60
16404;DHT22;8311;50.158;8.642;2023-05-07T18:15:02;23.70;46.70
16404;DHT22;8311;50.158;8.642;2023-05-07T18:17:55;23.70;46.60
16404;DHT22;8311;50.158;8.642;2023-05-07T18:20:49;23.70;46.70
16404;DHT22;8311;50.158;8.642;2023-05-07T18:23:42;23.60;46.70
16404;DHT22;8311;50.158;8.642;2023-05-07T18:26:37;23.70;46.70
16404;DHT22;8311;50.158;8.642;2023-05-07T18:29:30;23.70;46.70
16404;DHT22;8311;50.158;8.642;2023-05-07T18:32:23;23.70;46.80
16404;DHT22;8311;50.158;8.642;2023-05-07T18:35:16;23.70;46.90
16404;DHT22;8311;50.158;8.642;2023-05-07T18:38:10;23.60;46.80
16404;DHT22;8311;50.158;8.642;2023-05-07T18:41:03;23.70;47.50